sensor_id;sensor_type;location;lat;lon;timestamp;temperature;humidity
3136;DHT22;1578;47.658;9.922;2023-11-21T00:00:19;7.60;81.90
3136;DHT22;1578;47.658;9.922;2023-11-21T00:02:45;7.60;79.70
3136;DHT22;1578;47.658;9.922;2023-11-21T00:05:12;7.60;79.70
3136;DHT22;1578;47.658;9.922;2023-11-21T00:07:39;7.60;81.20
3136;DHT22;1578;47.658;9.922;2023-11-21T00:10:06;7.50;80.70
3136;DHT22;1578;47.658;9.922;2023-11-21T00:12:32;7.60;83.00
3136;DHT22;1578;47.658;9.922;2023-11-21T00:14:58;7.60;83.00
3136;DHT22;1578;47.658;9.922;2023-11-21T00:17:24;7.70;80.90
3136;DHT22;1578;47.658;9.922;2023-11-21T00:19:50;7.70;81.00
3136;DHT22;1578;47.658;9.922;2023-11-21T00:22:18;7.70;81.40
3136;DHT22;1578;47.658;9.922;2023-11-21T12:48:41;8.00;95.90
3136;DHT22;1578;47.658;9.922;2023-11-21T12:51:12;8.20;95.20
3136;DHT22;1578;47.658;9.922;2023-11-21T12:53:42;8.40;92.00
3136;DHT22;1578;47.658;9.922;2023-11-21T12:56:10;8.60;93.60
3136;DHT22;1578;47.658;9.922;2023-11-21T12:58:40;9.00;95.90
3136;DHT22;1578;47.658;9.922;2023-11-21T13:01:10;9.40;87.40
3136;DHT22;1578;47.658;9.922;2023-11-21T13:03:40;9.40;86.20
3136;DHT22;1578;47.658;9.922;2023-11-21T13:06:06;9.60;79.30
3136;DHT22;1578;47.658;9.922;2023-11-21T13:08:33;9.60;80.90
3136;DHT22;1578;47.658;9.922;2023-11-21T13:10:59;9.40;70.20
3136;DHT22;1578;47.658;9.922;2023-11-21T13:13:25;9.10;74.40
3136;DHT22;1578;47.658;9.922;2023-11-21T13:16:03;9.00;80.20
3136;DHT22;1578;47.658;9.922;2023-11-21T13:18:31;9.10;86.40
3136;DHT22;1578;47.658;9.922;2023-11-21T13:21:05;9.20;88.70
3136;DHT22;1578;47.658;9.922;2023-11-21T13:23:37;9.20;80.00
3136;DHT22;1578;47.658;9.922;2023-11-21T13:26:03;9.30;75.00
3136;DHT22;1578;47.658;9.922;2023-11-21T13:28:30;9.30;76.20
3136;DHT22;1578;47.658;9.922;2023-11-21T13:30:59;9.30;76.20
3136;DHT22;1578;47.658;9.922;2023-11-21T13:33:50;9.30;76.10
3136;DHT22;1578;47.658;9.922;2023-11-21T13:36:22;9.30;80.80
3136;DHT22;1578;47.658;9.922;2023-11-21T13:38:49;9.40;78.10
3136;DHT22;1578;47.658;9.922;2023-11-21T13:41:15;9.50;71.90
3136;DHT22;1578;47.658;9.922;2023-11-21T13:43:43;9.40;71.90
3136;DHT22;1578;47.658;9.922;2023-11-21T13:46:16;9.20;70.90
3136;DHT22;1578;47.658;9.922;2023-11-21T13:48:48;9.10;71.90
3136;DHT22;1578;47.658;9.922;2023-11-21T13:51:24;9.00;84.80
3136;DHT22;1578;47.658;9.922;2023-11-21T13:54:03;9.00;90.00
3136;DHT22;1578;47.658;9.922;2023-11-21T13:56:30;8.80;91.60
3136;DHT22;1578;47.658;9.922;2023-11-21T13:58:57;8.80;92.40
3136;DHT22;1578;47.658;9.922;2023-11-21T14:01:25;8.70;92.60
3136;DHT22;1578;47.658;9.922;2023-11-21T14:03:58;8.80;92.50
3136;DHT22;1578;47.658;9.922;2023-11-21T14:06:49;8.90;91.90
3136;DHT22;1578;47.658;9.922;2023-11-21T14:09:17;9.00;91.60
3136;DHT22;1578;47.658;9.922;2023-11-21T14:11:52;9.10;91.40
3136;DHT22;1578;47.658;9.922;2023-11-21T14:14:20;9.20;90.90
3136;DHT22;1578;47.658;9.922;2023-11-21T14:16:46;9.20;90.50
3136;DHT22;1578;47.658;9.922;2023-11-21T14:19:11;9.10;89.80
3136;DHT22;1578;47.658;9.922;2023-11-21T14:21:46;8.90;90.70
3136;DHT22;1578;47.658;9.922;2023-11-21T14:24:14;9.00;91.30
3136;DHT22;1578;47.658;9.922;2023-11-21T14:26:45;9.00;91.40
3136;DHT22;1578;47.658;9.922;2023-11-21T14:29:15;9.00;90.80
3136;DHT22;1578;47.658;9.922;2023-11-21T14:31:45;9.10;91.10
3136;DHT22;1578;47.658;9.922;2023-11-21T14:34:11;9.20;90.90
3136;DHT22;1578;47.658;9.922;2023-11-21T14:36:37;9.20;90.90
3136;DHT22;1578;47.658;9.922;2023-11-21T14:39:05;9.20;90.90
3136;DHT22;1578;47.658;9.922;2023-11-21T14:41:35;9.30;91.50
3136;DHT22;1578;47.658;9.922;2023-11-21T14:44:02;9.30;90.90
3136;DHT22;1578;47.658;9.922;2023-11-21T14:46:29;9.40;91.60
3136;DHT22;1578;47.658;9.922;2023-11-21T14:48:55;9.50;90.90
3136;DHT22;1578;47.658;9.922;2023-11-21T14:51:28;9.50;90.10
3136;DHT22;1578;47.658;9.922;2023-11-21T14:54:01;9.50;90.30
3136;DHT22;1578;47.658;9.922;2023-11-21T14:56:32;9.50;85.00
3136;DHT22;1578;47.658;9.922;2023-11-21T14:59:02;9.40;83.50
3136;DHT22;1578;47.658;9.922;2023-11-21T15:01:37;9.30;85.30
3136;DHT22;1578;47.658;9.922;2023-11-21T15:04:21;9.10;87.80
3136;DHT22;1578;47.658;9.922;2023-11-21T15:06:59;9.10;86.90
3136;DHT22;1578;47.658;9.922;2023-11-21T15:09:25;9.00;80.70
3136;DHT22;1578;47.658;9.922;2023-11-21T15:12:02;9.00;82.10
3136;DHT22;1578;47.658;9.922;2023-11-21T15:14:50;9.00;80.60
3136;DHT22;1578;47.658;9.922;2023-11-21T15:17:20;8.80;84.80
3136;DHT22;1578;47.658;9.922;2023-11-21T15:19:52;8.70;87.40
3136;DHT22;1578;47.658;9.922;2023-11-21T15:22:18;8.60;87.30
3136;DHT22;1578;47.658;9.922;2023-11-21T15:24:44;8.50;87.30
3136;DHT22;1578;47.658;9.922;2023-11-21T15:27:12;8.50;85.40
3136;DHT22;1578;47.658;9.922;2023-11-21T15:29:39;8.40;87.10
3136;DHT22;1578;47.658;9.922;2023-11-21T15:32:06;8.40;89.30
3136;DHT22;1578;47.658;9.922;2023-11-21T15:34:32;8.30;90.00
3136;DHT22;1578;47.658;9.922;2023-11-21T15:36:58;8.20;90.80
3136;DHT22;1578;47.658;9.922;2023-11-21T15:39:24;8.30;91.10
3136;DHT22;1578;47.658;9.922;2023-11-21T15:41:54;8.20;91.00
3136;DHT22;1578;47.658;9.922;2023-11-21T15:44:20;8.10;91.20
3136;DHT22;1578;47.658;9.922;2023-11-21T15:46:45;7.90;92.30
3136;DHT22;1578;47.658;9.922;2023-11-21T15:49:11;7.80;93.70
3136;DHT22;1578;47.658;9.922;2023-11-21T15:51:43;7.90;94.20
3136;DHT22;1578;47.658;9.922;2023-11-21T15:54:12;7.90;95.00
3136;DHT22;1578;47.658;9.922;2023-11-21T15:56:38;7.80;95.60
3136;DHT22;1578;47.658;9.922;2023-11-21T15:59:04;7.70;96.40
3136;DHT22;1578;47.658;9.922;2023-11-21T16:01:33;7.70;97.40
3136;DHT22;1578;47.658;9.922;2023-11-21T16:03:59;7.60;95.20
3136;DHT22;1578;47.658;9.922;2023-11-21T16:06:27;7.40;93.90
3136;DHT22;1578;47.658;9.922;2023-11-21T16:08:53;7.30;92.40
3136;DHT22;1578;47.658;9.922;2023-11-21T16:11:18;7.30;92.80
3136;DHT22;1578;47.658;9.922;2023-11-21T16:13:44;7.20;95.10
3136;DHT22;1578;47.658;9.922;2023-11-21T16:16:11;7.20;95.40
3136;DHT22;1578;47.658;9.922;2023-11-21T16:18:37;7.10;95.80
3136;DHT22;1578;47.658;9.922;2023-11-21T16:21:03;7.10;96.60
3136;DHT22;1578;47.658;9.922;2023-11-21T16:23:28;6.90;96.30
3136;DHT22;1578;47.658;9.922;2023-11-21T16:25:55;6.90;97.70
3136;DHT22;1578;47.658;9.922;2023-11-21T16:28:22;7.00;98.10
3136;DHT22;1578;47.658;9.922;2023-11-21T16:30:49;6.80;98.40
3136;DHT22;1578;47.658;9.922;2023-11-21T16:33:15;6.90;98.40
3136;DHT22;1578;47.658;9.922;2023-11-21T16:35:41;6.80;98.80
3136;DHT22;1578;47.658;9.922;2023-11-21T16:38:07;6.70;99.70
3136;DHT22;1578;47.658;9.922;2023-11-21T16:40:33;6.70;99.90
3136;DHT22;1578;47.658;9.922;2023-11-21T16:42:59;6.70;99.90
3136;DHT22;1578;47.658;9.922;2023-11-21T16:45:25;6.70;99.90
3136;DHT22;1578;47.658;9.922;2023-11-21T16:47:50;6.70;99.90
3136;DHT22;1578;47.658;9.922;2023-11-21T16:50:16;6.70;99.90
3136;DHT22;1578;47.658;9.922;2023-11-21T16:52:42;6.80;99.80
3136;DHT22;1578;47.658;9.922;2023-11-21T16:55:09;6.80;99.00
3136;DHT22;1578;47.658;9.922;2023-11-21T16:57:38;6.80;99.40
3136;DHT22;1578;47.658;9.922;2023-11-21T17:00:05;6.80;99.90
3136;DHT22;1578;47.658;9.922;2023-11-21T17:02:33;6.70;99.90
3136;DHT22;1578;47.658;9.922;2023-11-21T17:04:58;6.70;99.90
3136;DHT22;1578;47.658;9.922;2023-11-21T17:07:24;6.70;99.90
3136;DHT22;1578;47.658;9.922;2023-11-21T17:09:50;6.80;99.90
3136;DHT22;1578;47.658;9.922;2023-11-21T17:12:16;6.80;99.90
3136;DHT22;1578;47.658;9.922;2023-11-21T17:14:42;6.70;99.90
3136;DHT22;1578;47.658;9.922;2023-11-21T17:17:09;6.70;99.90
3136;DHT22;1578;47.658;9.922;2023-11-21T17:19:39;6.80;99.90
3136;DHT22;1578;47.658;9.922;2023-11-21T17:22:05;6.70;99.90
3136;DHT22;1578;47.658;9.922;2023-11-21T17:24:31;6.80;99.70
3136;DHT22;1578;47.658;9.922;2023-11-21T17:26:59;6.70;98.50
3136;DHT22;1578;47.658;9.922;2023-11-21T17:29:25;6.40;99.20
3136;DHT22;1578;47.658;9.922;2023-11-21T17:31:51;6.20;99.90
3136;DHT22;1578;47.658;9.922;2023-11-21T17:34:17;6.20;99.90
3136;DHT22;1578;47.658;9.922;2023-11-21T17:36:45;6.10;99.90
3136;DHT22;1578;47.658;9.922;2023-11-21T17:39:11;6.20;99.90
3136;DHT22;1578;47.658;9.922;2023-11-21T17:41:37;6.30;99.90
3136;DHT22;1578;47.658;9.922;2023-11-21T17:44:03;6.50;99.90
3136;DHT22;1578;47.658;9.922;2023-11-21T17:46:29;6.50;99.90
3136;DHT22;1578;47.658;9.922;2023-11-21T17:48:55;6.50;99.90
3136;DHT22;1578;47.658;9.922;2023-11-21T17:51:21;6.50;99.90
3136;DHT22;1578;47.658;9.922;2023-11-21T17:53:47;6.60;99.90
3136;DHT22;1578;47.658;9.922;2023-11-21T17:56:17;6.60;99.90
3136;DHT22;1578;47.658;9.922;2023-11-21T17:58:44;6.70;99.90
3136;DHT22;1578;47.658;9.922;2023-11-21T18:01:10;6.70;99.90
3136;DHT22;1578;47.658;9.922;2023-11-21T18:03:36;6.60;99.60
3136;DHT22;1578;47.658;9.922;2023-11-21T18:06:03;6.40;99.90
3136;DHT22;1578;47.658;9.922;2023-11-21T18:08:29;6.40;99.90
3136;DHT22;1578;47.658;9.922;2023-11-21T18:10:55;6.40;99.90
3136;DHT22;1578;47.658;9.922;2023-11-21T18:13:23;6.40;99.90
3136;DHT22;1578;47.658;9.922;2023-11-21T18:15:49;6.40;99.90
3136;DHT22;1578;47.658;9.922;2023-11-21T18:18:14;6.40;99.90
3136;DHT22;1578;47.658;9.922;2023-11-21T18:20:40;6.50;99.90
3136;DHT22;1578;47.658;9.922;2023-11-21T18:23:06;6.50;99.90
3136;DHT22;1578;47.658;9.922;2023-11-21T18:25:32;6.60;99.90
3136;DHT22;1578;47.658;9.922;2023-11-21T18:27:57;6.70;99.90
3136;DHT22;1578;47.658;9.922;2023-11-21T18:30:23;6.70;99.90
3136;DHT22;1578;47.658;9.922;2023-11-21T18:32:48;6.70;99.90
3136;DHT22;1578;47.658;9.922;2023-11-21T18:35:14;6.70;99.90
3136;DHT22;1578;47.658;9.922;2023-11-21T18:37:40;6.80;99.90
3136;DHT22;1578;47.658;9.922;2023-11-21T18:40:06;6.80;99.80
3136;DHT22;1578;47.658;9.922;2023-11-21T18:42:34;6.90;99.40
3136;DHT22;1578;47.658;9.922;2023-11-21T18:45:00;6.90;99.30
3136;DHT22;1578;47.658;9.922;2023-11-21T18:47:26;6.90;98.70
3136;DHT22;1578;47.658;9.922;2023-11-21T18:49:52;6.90;98.80
3136;DHT22;1578;47.658;9.922;2023-11-21T18:52:20;6.90;98.90
3136;DHT22;1578;47.658;9.922;2023-11-21T18:54:45;6.80;98.50
3136;DHT22;1578;47.658;9.922;2023-11-21T18:57:13;6.90;98.90
3136;DHT22;1578;47.658;9.922;2023-11-21T18:59:39;6.90;99.00
3136;DHT22;1578;47.658;9.922;2023-11-21T19:02:06;7.00;98.90
3136;DHT22;1578;47.658;9.922;2023-11-21T19:04:38;6.90;98.50
3136;DHT22;1578;47.658;9.922;2023-11-21T19:07:03;7.00;98.70
3136;DHT22;1578;47.658;9.922;2023-11-21T19:09:30;7.10;97.80
3136;DHT22;1578;47.658;9.922;2023-11-21T19:11:59;7.00;97.60
3136;DHT22;1578;47.658;9.922;2023-11-21T19:14:25;7.10;97.70
3136;DHT22;1578;47.658;9.922;2023-11-21T19:16:51;7.00;97.20
3136;DHT22;1578;47.658;9.922;2023-11-21T19:19:17;6.90;97.60
3136;DHT22;1578;47.658;9.922;2023-11-21T19:21:43;6.90;97.20
3136;DHT22;1578;47.658;9.922;2023-11-21T19:24:09;6.90;97.50
3136;DHT22;1578;47.658;9.922;2023-11-21T19:26:38;7.00;97.60
3136;DHT22;1578;47.658;9.922;2023-11-21T19:29:04;7.10;96.90
3136;DHT22;1578;47.658;9.922;2023-11-21T19:31:31;7.10;96.30
3136;DHT22;1578;47.658;9.922;2023-11-21T19:34:00;7.10;96.30
3136;DHT22;1578;47.658;9.922;2023-11-21T19:36:26;7.10;96.10
3136;DHT22;1578;47.658;9.922;2023-11-21T19:38:53;7.10;96.50
3136;DHT22;1578;47.658;9.922;2023-11-21T19:41:21;7.10;96.20
3136;DHT22;1578;47.658;9.922;2023-11-21T19:43:48;6.90;96.60
3136;DHT22;1578;47.658;9.922;2023-11-21T19:46:17;6.90;97.90
3136;DHT22;1578;47.658;9.922;2023-11-21T19:48:43;6.80;98.50
3136;DHT22;1578;47.658;9.922;2023-11-21T19:51:09;6.70;98.30
3136;DHT22;1578;47.658;9.922;2023-11-21T19:53:37;6.60;99.20
3136;DHT22;1578;47.658;9.922;2023-11-21T19:56:06;6.40;99.80
3136;DHT22;1578;47.658;9.922;2023-11-21T19:58:36;6.30;99.90
3136;DHT22;1578;47.658;9.922;2023-11-21T20:01:02;6.40;99.90
3136;DHT22;1578;47.658;9.922;2023-11-21T20:03:29;6.40;99.90
3136;DHT22;1578;47.658;9.922;2023-11-21T20:05:55;6.40;99.90
3136;DHT22;1578;47.658;9.922;2023-11-21T20:08:23;6.50;99.90
3136;DHT22;1578;47.658;9.922;2023-11-21T20:10:51;6.60;99.60
3136;DHT22;1578;47.658;9.922;2023-11-21T20:13:18;6.70;99.30
3136;DHT22;1578;47.658;9.922;2023-11-21T20:15:45;6.70;99.30
3136;DHT22;1578;47.658;9.922;2023-11-21T20:18:11;6.70;98.90
3136;DHT22;1578;47.658;9.922;2023-11-21T20:20:38;6.70;98.90
3136;DHT22;1578;47.658;9.922;2023-11-21T20:23:05;6.70;99.30
3136;DHT22;1578;47.658;9.922;2023-11-21T20:25:31;6.80;99.40
3136;DHT22;1578;47.658;9.922;2023-11-21T20:27:59;6.80;98.90
3136;DHT22;1578;47.658;9.922;2023-11-21T20:30:26;6.80;98.70
3136;DHT22;1578;47.658;9.922;2023-11-21T20:32:54;6.80;98.40
3136;DHT22;1578;47.658;9.922;2023-11-21T20:35:21;6.80;98.30
3136;DHT22;1578;47.658;9.922;2023-11-21T20:37:48;6.90;98.70
3136;DHT22;1578;47.658;9.922;2023-11-21T20:40:15;6.90;98.40
3136;DHT22;1578;47.658;9.922;2023-11-21T20:42:42;6.90;98.80
3136;DHT22;1578;47.658;9.922;2023-11-21T20:45:14;7.00;98.30
3136;DHT22;1578;47.658;9.922;2023-11-21T20:47:41;7.00;97.60
3136;DHT22;1578;47.658;9.922;2023-11-21T20:50:09;7.00;97.60
3136;DHT22;1578;47.658;9.922;2023-11-21T20:52:36;7.00;97.30
